sensor_id;sensor_type;location;lat;lon;timestamp;P1;durP1;ratioP1;P2;durP2;ratioP2
58250;SDS011;51449;51.676;5.812;2023-06-14T00:02:19;6.43;;;5.13;;
58250;SDS011;51449;51.676;5.812;2023-06-14T00:05:00;10.48;;;5.20;;
58250;SDS011;51449;51.676;5.812;2023-06-14T00:07:41;6.72;;;5.00;;
58250;SDS011;51449;51.676;5.812;2023-06-14T00:10:25;6.97;;;5.20;;
58250;SDS011;51449;51.676;5.812;2023-06-14T00:13:06;9.20;;;5.30;;
58250;SDS011;51449;51.676;5.812;2023-06-14T00:15:51;6.25;;;5.13;;
58250;SDS011;51449;51.676;5.812;2023-06-14T00:18:34;7.72;;;4.80;;
58250;SDS011;51449;51.676;5.812;2023-06-14T00:21:15;6.60;;;4.63;;
58250;SDS011;51449;51.676;5.812;2023-06-14T00:23:57;6.38;;;4.57;;
58250;SDS011;51449;51.676;5.812;2023-06-14T00:26:38;6.75;;;4.80;;
58250;SDS011;51449;51.676;5.812;2023-06-14T00:29:18;7.60;;;4.70;;
58250;SDS011;51449;51.676;5.812;2023-06-14T00:31:58;6.25;;;4.80;;
58250;SDS011;51449;51.676;5.812;2023-06-14T00:34:39;5.50;;;4.90;;
58250;SDS011;51449;51.676;5.812;2023-06-14T00:37:21;6.68;;;4.65;;
58250;SDS011;51449;51.676;5.812;2023-06-14T00:40:02;6.28;;;4.53;;
58250;SDS011;51449;51.676;5.812;2023-06-14T00:42:44;5.03;;;4.53;;
58250;SDS011;51449;51.676;5.812;2023-06-14T00:45:25;7.15;;;4.47;;
58250;SDS011;51449;51.676;5.812;2023-06-14T00:48:06;5.10;;;4.60;;
58250;SDS011;51449;51.676;5.812;2023-06-14T00:50:49;5.97;;;4.63;;
58250;SDS011;51449;51.676;5.812;2023-06-14T00:53:32;5.72;;;4.05;;
58250;SDS011;51449;51.676;5.812;2023-06-14T00:56:15;6.28;;;4.38;;
58250;SDS011;51449;51.676;5.812;2023-06-14T00:58:56;7.97;;;4.38;;
58250;SDS011;51449;51.676;5.812;2023-06-14T01:01:37;5.80;;;4.32;;
58250;SDS011;51449;51.676;5.812;2023-06-14T01:04:21;5.90;;;4.40;;
58250;SDS011;51449;51.676;5.812;2023-06-14T01:10:02;4.65;;;4.22;;
58250;SDS011;51449;51.676;5.812;2023-06-14T01:18:37;6.90;;;4.30;;
58250;SDS011;51449;51.676;5.812;2023-06-14T01:21:24;5.03;;;4.45;;
58250;SDS011;51449;51.676;5.812;2023-06-14T01:24:05;8.13;;;4.60;;
58250;SDS011;51449;51.676;5.812;2023-06-14T01:26:47;7.33;;;4.40;;
58250;SDS011;51449;51.676;5.812;2023-06-14T01:29:32;8.95;;;4.53;;
58250;SDS011;51449;51.676;5.812;2023-06-14T01:32:16;6.00;;;4.50;;
58250;SDS011;51449;51.676;5.812;2023-06-14T01:34:58;7.27;;;4.63;;
58250;SDS011;51449;51.676;5.812;2023-06-14T01:37:40;6.97;;;3.97;;
58250;SDS011;51449;51.676;5.812;2023-06-14T01:40:23;7.05;;;4.30;;
58250;SDS011;51449;51.676;5.812;2023-06-14T01:43:04;5.73;;;4.67;;
58250;SDS011;51449;51.676;5.812;2023-06-14T01:45:47;7.40;;;4.10;;
58250;SDS011;51449;51.676;5.812;2023-06-14T01:48:31;6.30;;;3.97;;
58250;SDS011;51449;51.676;5.812;2023-06-14T01:51:12;4.97;;;3.77;;
58250;SDS011;51449;51.676;5.812;2023-06-14T01:53:54;4.17;;;3.77;;
58250;SDS011;51449;51.676;5.812;2023-06-14T01:56:34;5.20;;;4.30;;
58250;SDS011;51449;51.676;5.812;2023-06-14T01:59:15;7.60;;;3.90;;
58250;SDS011;51449;51.676;5.812;2023-06-14T02:01:55;5.63;;;3.97;;
58250;SDS011;51449;51.676;5.812;2023-06-14T02:04:36;4.77;;;4.07;;
58250;SDS011;51449;51.676;5.812;2023-06-14T02:07:16;5.80;;;4.00;;
58250;SDS011;51449;51.676;5.812;2023-06-14T02:09:56;7.70;;;4.23;;
58250;SDS011;51449;51.676;5.812;2023-06-14T02:12:37;6.13;;;3.97;;
58250;SDS011;51449;51.676;5.812;2023-06-14T02:15:18;5.87;;;3.90;;
58250;SDS011;51449;51.676;5.812;2023-06-14T02:18:00;5.93;;;3.93;;
58250;SDS011;51449;51.676;5.812;2023-06-14T02:20:46;6.40;;;3.87;;
58250;SDS011;51449;51.676;5.812;2023-06-14T02:23:26;4.27;;;3.87;;
58250;SDS011;51449;51.676;5.812;2023-06-14T02:26:06;5.10;;;3.83;;
58250;SDS011;51449;51.676;5.812;2023-06-14T02:28:47;6.10;;;4.23;;
58250;SDS011;51449;51.676;5.812;2023-06-14T02:31:27;6.20;;;3.90;;
58250;SDS011;51449;51.676;5.812;2023-06-14T02:34:09;4.77;;;3.60;;
58250;SDS011;51449;51.676;5.812;2023-06-14T02:36:49;5.10;;;3.80;;
58250;SDS011;51449;51.676;5.812;2023-06-14T02:39:29;4.87;;;3.63;;
58250;SDS011;51449;51.676;5.812;2023-06-14T02:42:10;6.90;;;3.87;;
58250;SDS011;51449;51.676;5.812;2023-06-14T02:44:50;4.77;;;3.90;;
58250;SDS011;51449;51.676;5.812;2023-06-14T02:47:33;5.30;;;4.33;;
58250;SDS011;51449;51.676;5.812;2023-06-14T02:50:14;7.67;;;4.07;;
58250;SDS011;51449;51.676;5.812;2023-06-14T02:52:54;8.47;;;4.50;;
58250;SDS011;51449;51.676;5.812;2023-06-14T02:55:36;7.13;;;4.47;;
58250;SDS011;51449;51.676;5.812;2023-06-14T02:58:21;5.77;;;3.90;;
58250;SDS011;51449;51.676;5.812;2023-06-14T03:01:01;6.77;;;3.97;;
58250;SDS011;51449;51.676;5.812;2023-06-14T03:03:44;6.27;;;4.37;;
58250;SDS011;51449;51.676;5.812;2023-06-14T03:06:24;4.03;;;3.57;;
58250;SDS011;51449;51.676;5.812;2023-06-14T03:09:05;8.53;;;4.00;;
58250;SDS011;51449;51.676;5.812;2023-06-14T03:11:49;5.40;;;3.87;;
58250;SDS011;51449;51.676;5.812;2023-06-14T03:14:31;5.17;;;3.87;;
58250;SDS011;51449;51.676;5.812;2023-06-14T03:17:12;5.70;;;3.70;;
58250;SDS011;51449;51.676;5.812;2023-06-14T03:19:53;5.90;;;3.90;;
58250;SDS011;51449;51.676;5.812;2023-06-14T03:22:34;5.07;;;4.57;;
58250;SDS011;51449;51.676;5.812;2023-06-14T03:25:14;6.37;;;4.07;;
58250;SDS011;51449;51.676;5.812;2023-06-14T03:27:56;6.47;;;4.33;;
58250;SDS011;51449;51.676;5.812;2023-06-14T03:30:37;4.67;;;4.00;;
58250;SDS011;51449;51.676;5.812;2023-06-14T03:33:18;4.60;;;4.20;;
58250;SDS011;51449;51.676;5.812;2023-06-14T03:35:59;5.87;;;4.13;;
58250;SDS011;51449;51.676;5.812;2023-06-14T03:38:40;5.73;;;3.83;;
58250;SDS011;51449;51.676;5.812;2023-06-14T03:41:21;6.17;;;4.80;;
58250;SDS011;51449;51.676;5.812;2023-06-14T03:44:03;6.20;;;3.87;;
58250;SDS011;51449;51.676;5.812;2023-06-14T03:46:44;7.57;;;4.10;;
58250;SDS011;51449;51.676;5.812;2023-06-14T03:49:26;5.60;;;3.93;;
58250;SDS011;51449;51.676;5.812;2023-06-14T03:52:06;5.60;;;4.30;;
58250;SDS011;51449;51.676;5.812;2023-06-14T03:54:49;5.23;;;3.60;;
58250;SDS011;51449;51.676;5.812;2023-06-14T03:57:32;5.63;;;3.80;;
58250;SDS011;51449;51.676;5.812;2023-06-14T04:00:13;4.23;;;3.60;;
58250;SDS011;51449;51.676;5.812;2023-06-14T04:02:56;6.00;;;3.90;;
58250;SDS011;51449;51.676;5.812;2023-06-14T04:05:36;6.90;;;4.00;;
58250;SDS011;51449;51.676;5.812;2023-06-14T04:08:18;5.60;;;4.03;;
58250;SDS011;51449;51.676;5.812;2023-06-14T04:10:59;6.07;;;4.00;;
58250;SDS011;51449;51.676;5.812;2023-06-14T04:13:40;7.13;;;3.93;;
58250;SDS011;51449;51.676;5.812;2023-06-14T04:16:20;4.73;;;3.67;;
58250;SDS011;51449;51.676;5.812;2023-06-14T04:19:01;12.63;;;4.00;;
58250;SDS011;51449;51.676;5.812;2023-06-14T04:21:41;5.60;;;3.57;;
58250;SDS011;51449;51.676;5.812;2023-06-14T04:24:22;5.13;;;4.10;;
58250;SDS011;51449;51.676;5.812;2023-06-14T04:27:03;5.03;;;3.77;;
58250;SDS011;51449;51.676;5.812;2023-06-14T04:29:44;7.03;;;3.77;;
58250;SDS011;51449;51.676;5.812;2023-06-14T04:32:27;5.37;;;3.83;;
58250;SDS011;51449;51.676;5.812;2023-06-14T04:35:08;6.87;;;3.80;;
58250;SDS011;51449;51.676;5.812;2023-06-14T04:37:51;5.77;;;4.43;;
58250;SDS011;51449;51.676;5.812;2023-06-14T04:40:33;6.70;;;3.97;;
58250;SDS011;51449;51.676;5.812;2023-06-14T04:43:16;6.00;;;4.20;;
58250;SDS011;51449;51.676;5.812;2023-06-14T04:46:00;4.82;;;3.83;;
58250;SDS011;51449;51.676;5.812;2023-06-14T04:48:43;5.73;;;3.77;;
58250;SDS011;51449;51.676;5.812;2023-06-14T04:51:24;6.03;;;4.20;;
58250;SDS011;51449;51.676;5.812;2023-06-14T04:54:10;4.60;;;3.47;;
58250;SDS011;51449;51.676;5.812;2023-06-14T04:56:54;4.65;;;4.00;;
58250;SDS011;51449;51.676;5.812;2023-06-14T04:59:38;4.37;;;3.83;;
58250;SDS011;51449;51.676;5.812;2023-06-14T05:02:18;4.90;;;3.67;;
58250;SDS011;51449;51.676;5.812;2023-06-14T05:04:58;4.03;;;3.63;;
58250;SDS011;51449;51.676;5.812;2023-06-14T05:07:39;8.30;;;4.20;;
58250;SDS011;51449;51.676;5.812;2023-06-14T05:10:22;3.73;;;3.37;;
58250;SDS011;51449;51.676;5.812;2023-06-14T05:13:02;4.80;;;3.90;;
58250;SDS011;51449;51.676;5.812;2023-06-14T05:15:43;8.50;;;4.30;;
58250;SDS011;51449;51.676;5.812;2023-06-14T05:18:24;6.43;;;3.60;;
58250;SDS011;51449;51.676;5.812;2023-06-14T05:21:07;6.47;;;3.47;;
58250;SDS011;51449;51.676;5.812;2023-06-14T05:23:48;6.40;;;3.90;;
58250;SDS011;51449;51.676;5.812;2023-06-14T05:26:30;5.27;;;4.00;;
58250;SDS011;51449;51.676;5.812;2023-06-14T05:29:11;4.83;;;3.50;;
58250;SDS011;51449;51.676;5.812;2023-06-14T05:31:52;4.20;;;3.63;;
58250;SDS011;51449;51.676;5.812;2023-06-14T05:34:33;4.80;;;3.45;;
58250;SDS011;51449;51.676;5.812;2023-06-14T05:37:13;6.13;;;3.75;;
58250;SDS011;51449;51.676;5.812;2023-06-14T05:39:55;4.10;;;3.70;;
58250;SDS011;51449;51.676;5.812;2023-06-14T05:42:36;10.05;;;4.05;;
58250;SDS011;51449;51.676;5.812;2023-06-14T05:45:17;5.93;;;3.83;;
58250;SDS011;51449;51.676;5.812;2023-06-14T05:47:57;8.18;;;4.20;;
58250;SDS011;51449;51.676;5.812;2023-06-14T05:50:38;5.78;;;3.92;;
58250;SDS011;51449;51.676;5.812;2023-06-14T05:53:20;4.70;;;3.55;;
58250;SDS011;51449;51.676;5.812;2023-06-14T05:56:00;5.80;;;3.78;;
58250;SDS011;51449;51.676;5.812;2023-06-14T05:58:41;6.75;;;3.28;;
58250;SDS011;51449;51.676;5.812;2023-06-14T06:01:21;4.13;;;3.60;;
58250;SDS011;51449;51.676;5.812;2023-06-14T06:04:02;6.45;;;3.83;;
58250;SDS011;51449;51.676;5.812;2023-06-14T06:06:43;5.95;;;3.63;;
58250;SDS011;51449;51.676;5.812;2023-06-14T06:09:23;5.40;;;3.50;;
58250;SDS011;51449;51.676;5.812;2023-06-14T06:12:06;5.60;;;3.63;;
58250;SDS011;51449;51.676;5.812;2023-06-14T06:14:47;5.55;;;3.63;;
58250;SDS011;51449;51.676;5.812;2023-06-14T06:17:27;7.45;;;4.07;;
58250;SDS011;51449;51.676;5.812;2023-06-14T06:20:25;7.05;;;4.00;;
58250;SDS011;51449;51.676;5.812;2023-06-14T06:23:10;4.68;;;3.70;;
58250;SDS011;51449;51.676;5.812;2023-06-14T06:25:50;5.55;;;3.60;;
58250;SDS011;51449;51.676;5.812;2023-06-14T06:28:31;5.68;;;3.60;;
58250;SDS011;51449;51.676;5.812;2023-06-14T06:31:12;5.15;;;3.50;;
58250;SDS011;51449;51.676;5.812;2023-06-14T06:33:53;4.38;;;3.80;;
58250;SDS011;51449;51.676;5.812;2023-06-14T06:36:34;3.85;;;3.45;;
58250;SDS011;51449;51.676;5.812;2023-06-14T06:39:15;4.53;;;3.75;;
58250;SDS011;51449;51.676;5.812;2023-06-14T06:41:56;6.03;;;3.40;;
58250;SDS011;51449;51.676;5.812;2023-06-14T06:44:45;4.75;;;3.70;;
58250;SDS011;51449;51.676;5.812;2023-06-14T06:47:26;5.65;;;3.63;;
58250;SDS011;51449;51.676;5.812;2023-06-14T06:50:06;4.70;;;4.10;;
58250;SDS011;51449;51.676;5.812;2023-06-14T06:52:48;4.75;;;3.45;;
58250;SDS011;51449;51.676;5.812;2023-06-14T06:55:28;5.28;;;3.70;;
58250;SDS011;51449;51.676;5.812;2023-06-14T06:58:10;5.55;;;3.55;;
58250;SDS011;51449;51.676;5.812;2023-06-14T07:00:51;5.97;;;3.50;;
58250;SDS011;51449;51.676;5.812;2023-06-14T07:03:31;5.68;;;3.20;;
58250;SDS011;51449;51.676;5.812;2023-06-14T07:06:12;9.20;;;3.88;;
58250;SDS011;51449;51.676;5.812;2023-06-14T07:08:52;7.95;;;3.47;;
58250;SDS011;51449;51.676;5.812;2023-06-14T07:11:33;4.40;;;3.58;;
58250;SDS011;51449;51.676;5.812;2023-06-14T07:14:14;4.43;;;3.22;;
58250;SDS011;51449;51.676;5.812;2023-06-14T07:16:55;4.25;;;3.30;;
58250;SDS011;51449;51.676;5.812;2023-06-14T07:19:36;4.97;;;3.22;;
58250;SDS011;51449;51.676;5.812;2023-06-14T07:22:19;5.95;;;3.42;;
58250;SDS011;51449;51.676;5.812;2023-06-14T07:25:00;4.35;;;3.40;;
58250;SDS011;51449;51.676;5.812;2023-06-14T07:27:41;4.55;;;3.30;;
58250;SDS011;51449;51.676;5.812;2023-06-14T07:30:23;5.68;;;3.00;;
58250;SDS011;51449;51.676;5.812;2023-06-14T07:33:06;3.90;;;2.95;;
58250;SDS011;51449;51.676;5.812;2023-06-14T07:35:48;5.57;;;3.20;;
58250;SDS011;51449;51.676;5.812;2023-06-14T07:38:29;3.47;;;2.80;;
58250;SDS011;51449;51.676;5.812;2023-06-14T07:41:10;3.58;;;2.55;;
58250;SDS011;51449;51.676;5.812;2023-06-14T07:43:50;3.33;;;2.30;;
58250;SDS011;51449;51.676;5.812;2023-06-14T07:46:31;5.95;;;2.70;;
58250;SDS011;51449;51.676;5.812;2023-06-14T07:49:11;4.63;;;2.70;;
58250;SDS011;51449;51.676;5.812;2023-06-14T07:51:52;4.60;;;2.67;;
58250;SDS011;51449;51.676;5.812;2023-06-14T07:54:33;3.55;;;2.60;;
58250;SDS011;51449;51.676;5.812;2023-06-14T07:57:14;3.00;;;2.40;;
58250;SDS011;51449;51.676;5.812;2023-06-14T07:59:54;2.00;;;1.90;;
58250;SDS011;51449;51.676;5.812;2023-06-14T08:02:35;3.25;;;2.03;;
58250;SDS011;51449;51.676;5.812;2023-06-14T08:05:15;2.55;;;2.17;;
58250;SDS011;51449;51.676;5.812;2023-06-14T08:07:56;2.90;;;2.08;;
58250;SDS011;51449;51.676;5.812;2023-06-14T08:10:36;2.38;;;1.90;;
58250;SDS011;51449;51.676;5.812;2023-06-14T08:13:17;4.75;;;2.10;;
58250;SDS011;51449;51.676;5.812;2023-06-14T08:15:57;4.65;;;2.15;;
58250;SDS011;51449;51.676;5.812;2023-06-14T08:18:38;2.83;;;1.58;;
58250;SDS011;51449;51.676;5.812;2023-06-14T08:21:18;2.75;;;1.38;;
58250;SDS011;51449;51.676;5.812;2023-06-14T08:23:59;1.50;;;1.40;;
58250;SDS011;51449;51.676;5.812;2023-06-14T08:26:40;1.52;;;1.30;;
58250;SDS011;51449;51.676;5.812;2023-06-14T08:29:21;1.75;;;1.30;;
58250;SDS011;51449;51.676;5.812;2023-06-14T08:32:02;2.78;;;1.65;;
58250;SDS011;51449;51.676;5.812;2023-06-14T08:34:42;2.85;;;1.30;;
58250;SDS011;51449;51.676;5.812;2023-06-14T08:37:39;1.92;;;1.50;;
58250;SDS011;51449;51.676;5.812;2023-06-14T08:40:23;1.80;;;1.45;;
58250;SDS011;51449;51.676;5.812;2023-06-14T08:43:04;1.88;;;1.30;;
58250;SDS011;51449;51.676;5.812;2023-06-14T08:45:46;1.40;;;1.30;;
58250;SDS011;51449;51.676;5.812;2023-06-14T08:48:29;1.33;;;1.20;;
58250;SDS011;51449;51.676;5.812;2023-06-14T08:51:13;2.05;;;1.23;;
58250;SDS011;51449;51.676;5.812;2023-06-14T08:53:56;1.45;;;1.35;;
58250;SDS011;51449;51.676;5.812;2023-06-14T08:56:37;1.60;;;1.50;;
58250;SDS011;51449;51.676;5.812;2023-06-14T08:59:21;1.55;;;1.23;;
58250;SDS011;51449;51.676;5.812;2023-06-14T09:02:02;2.38;;;1.50;;
58250;SDS011;51449;51.676;5.812;2023-06-14T09:04:52;3.53;;;1.40;;
58250;SDS011;51449;51.676;5.812;2023-06-14T09:07:33;2.75;;;1.67;;
58250;SDS011;51449;51.676;5.812;2023-06-14T09:10:14;2.55;;;1.40;;
58250;SDS011;51449;51.676;5.812;2023-06-14T09:12:55;2.17;;;1.63;;
58250;SDS011;51449;51.676;5.812;2023-06-14T09:15:35;4.18;;;1.55;;
58250;SDS011;51449;51.676;5.812;2023-06-14T09:18:16;2.85;;;1.60;;
58250;SDS011;51449;51.676;5.812;2023-06-14T09:20:56;2.92;;;1.55;;
58250;SDS011;51449;51.676;5.812;2023-06-14T09:23:39;2.08;;;1.73;;
58250;SDS011;51449;51.676;5.812;2023-06-14T09:26:21;3.63;;;1.80;;
58250;SDS011;51449;51.676;5.812;2023-06-14T09:29:04;1.80;;;1.60;;
58250;SDS011;51449;51.676;5.812;2023-06-14T09:31:46;3.28;;;1.98;;
58250;SDS011;51449;51.676;5.812;2023-06-14T09:34:27;1.75;;;1.65;;
58250;SDS011;51449;51.676;5.812;2023-06-14T09:37:09;2.20;;;1.80;;
58250;SDS011;51449;51.676;5.812;2023-06-14T09:39:50;2.05;;;1.60;;
58250;SDS011;51449;51.676;5.812;2023-06-14T09:42:31;2.00;;;1.77;;
58250;SDS011;51449;51.676;5.812;2023-06-14T09:45:11;1.85;;;1.75;;
58250;SDS011;51449;51.676;5.812;2023-06-14T09:47:54;2.25;;;1.60;;
58250;SDS011;51449;51.676;5.812;2023-06-14T09:50:46;1.80;;;1.70;;
58250;SDS011;51449;51.676;5.812;2023-06-14T09:53:30;3.13;;;1.50;;
58250;SDS011;51449;51.676;5.812;2023-06-14T09:56:23;2.78;;;1.90;;
58250;SDS011;51449;51.676;5.812;2023-06-14T09:59:11;4.33;;;1.70;;
58250;SDS011;51449;51.676;5.812;2023-06-14T10:01:53;2.20;;;1.60;;
58250;SDS011;51449;51.676;5.812;2023-06-14T10:04:39;2.72;;;1.63;;
58250;SDS011;51449;51.676;5.812;2023-06-14T10:07:31;2.47;;;1.67;;
58250;SDS011;51449;51.676;5.812;2023-06-14T10:10:39;1.90;;;1.50;;
58250;SDS011;51449;51.676;5.812;2023-06-14T10:13:20;1.92;;;1.55;;
58250;SDS011;51449;51.676;5.812;2023-06-14T10:19:11;2.47;;;1.85;;
58250;SDS011;51449;51.676;5.812;2023-06-14T10:22:21;3.42;;;1.60;;
58250;SDS011;51449;51.676;5.812;2023-06-14T10:25:25;3.35;;;1.50;;
58250;SDS011;51449;51.676;5.812;2023-06-14T10:28:16;2.42;;;1.60;;
58250;SDS011;51449;51.676;5.812;2023-06-14T10:33:49;2.13;;;1.63;;
58250;SDS011;51449;51.676;5.812;2023-06-14T10:36:37;1.52;;;1.42;;
58250;SDS011;51449;51.676;5.812;2023-06-14T10:39:21;2.75;;;1.60;;
58250;SDS011;51449;51.676;5.812;2023-06-14T10:42:02;2.65;;;1.50;;
58250;SDS011;51449;51.676;5.812;2023-06-14T10:44:46;2.08;;;1.42;;
58250;SDS011;51449;51.676;5.812;2023-06-14T10:47:32;2.15;;;1.50;;
58250;SDS011;51449;51.676;5.812;2023-06-14T10:50:15;1.70;;;1.55;;
58250;SDS011;51449;51.676;5.812;2023-06-14T10:52:59;1.35;;;1.25;;
58250;SDS011;51449;51.676;5.812;2023-06-14T10:55:40;2.00;;;1.67;;
58250;SDS011;51449;51.676;5.812;2023-06-14T10:58:20;2.78;;;1.92;;
58250;SDS011;51449;51.676;5.812;2023-06-14T11:01:00;1.95;;;1.60;;
58250;SDS011;51449;51.676;5.812;2023-06-14T11:03:51;2.92;;;1.90;;
58250;SDS011;51449;51.676;5.812;2023-06-14T11:06:45;2.15;;;1.50;;
58250;SDS011;51449;51.676;5.812;2023-06-14T11:09:34;2.78;;;1.75;;
58250;SDS011;51449;51.676;5.812;2023-06-14T11:12:39;4.05;;;1.55;;
58250;SDS011;51449;51.676;5.812;2023-06-14T11:15:56;1.67;;;1.40;;
58250;SDS011;51449;51.676;5.812;2023-06-14T11:18:33;2.95;;;1.60;;
58250;SDS011;51449;51.676;5.812;2023-06-14T11:21:17;2.70;;;1.50;;
58250;SDS011;51449;51.676;5.812;2023-06-14T11:23:58;1.60;;;1.50;;
58250;SDS011;51449;51.676;5.812;2023-06-14T11:26:39;1.55;;;1.45;;
58250;SDS011;51449;51.676;5.812;2023-06-14T11:29:20;2.88;;;1.60;;
58250;SDS011;51449;51.676;5.812;2023-06-14T11:32:01;4.60;;;1.83;;
58250;SDS011;51449;51.676;5.812;2023-06-14T11:34:45;1.98;;;1.52;;
58250;SDS011;51449;51.676;5.812;2023-06-14T11:37:27;5.43;;;1.70;;
58250;SDS011;51449;51.676;5.812;2023-06-14T11:40:11;1.95;;;1.35;;
58250;SDS011;51449;51.676;5.812;2023-06-14T11:42:58;1.70;;;1.60;;
58250;SDS011;51449;51.676;5.812;2023-06-14T11:45:41;2.40;;;1.60;;
58250;SDS011;51449;51.676;5.812;2023-06-14T11:48:23;2.20;;;1.65;;
58250;SDS011;51449;51.676;5.812;2023-06-14T11:51:03;2.67;;;1.67;;
58250;SDS011;51449;51.676;5.812;2023-06-14T11:53:44;3.70;;;1.58;;
58250;SDS011;51449;51.676;5.812;2023-06-14T11:56:26;2.45;;;1.48;;
58250;SDS011;51449;51.676;5.812;2023-06-14T11:59:07;2.67;;;1.80;;
58250;SDS011;51449;51.676;5.812;2023-06-14T12:01:47;3.28;;;1.70;;
58250;SDS011;51449;51.676;5.812;2023-06-14T12:04:28;2.60;;;1.58;;
58250;SDS011;51449;51.676;5.812;2023-06-14T12:07:13;2.35;;;1.58;;
58250;SDS011;51449;51.676;5.812;2023-06-14T12:12:42;2.10;;;1.30;;
58250;SDS011;51449;51.676;5.812;2023-06-14T12:15:22;2.42;;;1.30;;
58250;SDS011;51449;51.676;5.812;2023-06-14T12:18:06;1.52;;;1.42;;
58250;SDS011;51449;51.676;5.812;2023-06-14T12:23:46;1.83;;;1.48;;
58250;SDS011;51449;51.676;5.812;2023-06-14T12:26:28;4.63;;;1.52;;
58250;SDS011;51449;51.676;5.812;2023-06-14T12:29:09;2.78;;;1.60;;
58250;SDS011;51449;51.676;5.812;2023-06-14T12:31:50;3.42;;;1.90;;
58250;SDS011;51449;51.676;5.812;2023-06-14T12:34:30;2.97;;;1.50;;
58250;SDS011;51449;51.676;5.812;2023-06-14T12:37:11;2.10;;;1.45;;
58250;SDS011;51449;51.676;5.812;2023-06-14T12:39:51;1.77;;;1.40;;
58250;SDS011;51449;51.676;5.812;2023-06-14T12:42:32;2.30;;;1.50;;
58250;SDS011;51449;51.676;5.812;2023-06-14T12:45:14;3.05;;;1.60;;
58250;SDS011;51449;51.676;5.812;2023-06-14T12:47:56;3.47;;;1.60;;
58250;SDS011;51449;51.676;5.812;2023-06-14T12:50:36;5.53;;;1.60;;
58250;SDS011;51449;51.676;5.812;2023-06-14T12:53:17;2.65;;;1.55;;
58250;SDS011;51449;51.676;5.812;2023-06-14T12:55:57;6.28;;;1.70;;
58250;SDS011;51449;51.676;5.812;2023-06-14T12:58:38;1.40;;;1.30;;
58250;SDS011;51449;51.676;5.812;2023-06-14T13:01:18;2.22;;;1.48;;
58250;SDS011;51449;51.676;5.812;2023-06-14T13:04:01;2.35;;;1.50;;
58250;SDS011;51449;51.676;5.812;2023-06-14T13:06:42;2.45;;;1.25;;
58250;SDS011;51449;51.676;5.812;2023-06-14T13:09:23;2.88;;;1.40;;
58250;SDS011;51449;51.676;5.812;2023-06-14T13:12:06;3.75;;;1.20;;
58250;SDS011;51449;51.676;5.812;2023-06-14T13:14:48;2.00;;;1.33;;
58250;SDS011;51449;51.676;5.812;2023-06-14T13:17:28;1.55;;;1.35;;
58250;SDS011;51449;51.676;5.812;2023-06-14T13:20:09;1.92;;;1.23;;
58250;SDS011;51449;51.676;5.812;2023-06-14T13:22:50;2.45;;;1.20;;
58250;SDS011;51449;51.676;5.812;2023-06-14T13:25:31;2.47;;;1.20;;
58250;SDS011;51449;51.676;5.812;2023-06-14T13:28:12;2.67;;;1.25;;
58250;SDS011;51449;51.676;5.812;2023-06-14T13:30:52;1.95;;;1.10;;
58250;SDS011;51449;51.676;5.812;2023-06-14T13:33:32;1.30;;;1.20;;
58250;SDS011;51449;51.676;5.812;2023-06-14T13:36:12;2.88;;;1.08;;
58250;SDS011;51449;51.676;5.812;2023-06-14T13:38:53;2.35;;;1.10;;
58250;SDS011;51449;51.676;5.812;2023-06-14T13:41:34;2.03;;;1.13;;
58250;SDS011;51449;51.676;5.812;2023-06-14T13:44:15;4.75;;;1.52;;
58250;SDS011;51449;51.676;5.812;2023-06-14T13:46:59;2.30;;;1.00;;
58250;SDS011;51449;51.676;5.812;2023-06-14T13:49:40;2.20;;;1.02;;
58250;SDS011;51449;51.676;5.812;2023-06-14T13:52:20;1.23;;;1.00;;
58250;SDS011;51449;51.676;5.812;2023-06-14T13:55:01;1.67;;;1.10;;
58250;SDS011;51449;51.676;5.812;2023-06-14T13:57:41;3.40;;;1.30;;
58250;SDS011;51449;51.676;5.812;2023-06-14T14:00:22;2.63;;;1.10;;
58250;SDS011;51449;51.676;5.812;2023-06-14T14:03:03;1.10;;;1.00;;
58250;SDS011;51449;51.676;5.812;2023-06-14T14:05:45;1.45;;;1.10;;
58250;SDS011;51449;51.676;5.812;2023-06-14T14:08:25;1.90;;;1.20;;
58250;SDS011;51449;51.676;5.812;2023-06-14T14:11:06;1.20;;;0.80;;
58250;SDS011;51449;51.676;5.812;2023-06-14T14:13:48;2.35;;;0.90;;
58250;SDS011;51449;51.676;5.812;2023-06-14T14:16:29;2.00;;;1.00;;
58250;SDS011;51449;51.676;5.812;2023-06-14T14:19:10;7.78;;;1.40;;
58250;SDS011;51449;51.676;5.812;2023-06-14T14:21:51;3.67;;;1.13;;
58250;SDS011;51449;51.676;5.812;2023-06-14T14:24:34;2.78;;;1.25;;
58250;SDS011;51449;51.676;5.812;2023-06-14T14:27:14;2.35;;;1.30;;
58250;SDS011;51449;51.676;5.812;2023-06-14T14:29:55;1.58;;;1.20;;
58250;SDS011;51449;51.676;5.812;2023-06-14T14:32:35;2.47;;;1.23;;
58250;SDS011;51449;51.676;5.812;2023-06-14T14:35:16;1.50;;;1.20;;
58250;SDS011;51449;51.676;5.812;2023-06-14T14:37:57;3.20;;;1.35;;
58250;SDS011;51449;51.676;5.812;2023-06-14T14:40:38;1.55;;;1.20;;
58250;SDS011;51449;51.676;5.812;2023-06-14T14:43:20;6.70;;;1.50;;
58250;SDS011;51449;51.676;5.812;2023-06-14T14:46:00;1.48;;;1.30;;
58250;SDS011;51449;51.676;5.812;2023-06-14T14:48:41;1.40;;;1.30;;
58250;SDS011;51449;51.676;5.812;2023-06-14T14:51:21;2.47;;;1.05;;
58250;SDS011;51449;51.676;5.812;2023-06-14T14:54:01;2.22;;;1.20;;
58250;SDS011;51449;51.676;5.812;2023-06-14T14:56:42;1.40;;;1.30;;
58250;SDS011;51449;51.676;5.812;2023-06-14T14:59:22;1.52;;;1.20;;
58250;SDS011;51449;51.676;5.812;2023-06-14T15:02:02;2.42;;;1.30;;
58250;SDS011;51449;51.676;5.812;2023-06-14T15:04:44;3.13;;;1.25;;
58250;SDS011;51449;51.676;5.812;2023-06-14T15:07:32;3.08;;;1.00;;
58250;SDS011;51449;51.676;5.812;2023-06-14T15:10:13;2.10;;;1.20;;
58250;SDS011;51449;51.676;5.812;2023-06-14T15:12:54;1.38;;;1.10;;
58250;SDS011;51449;51.676;5.812;2023-06-14T15:15:35;2.95;;;1.20;;
58250;SDS011;51449;51.676;5.812;2023-06-14T15:18:16;2.10;;;1.25;;
58250;SDS011;51449;51.676;5.812;2023-06-14T15:20:57;2.75;;;1.33;;
58250;SDS011;51449;51.676;5.812;2023-06-14T15:23:37;4.80;;;1.63;;
58250;SDS011;51449;51.676;5.812;2023-06-14T15:26:19;2.40;;;1.20;;
58250;SDS011;51449;51.676;5.812;2023-06-14T15:29:00;1.40;;;1.30;;
58250;SDS011;51449;51.676;5.812;2023-06-14T15:31:42;1.30;;;1.20;;
58250;SDS011;51449;51.676;5.812;2023-06-14T15:34:23;2.70;;;1.50;;
58250;SDS011;51449;51.676;5.812;2023-06-14T15:37:04;5.80;;;1.70;;
58250;SDS011;51449;51.676;5.812;2023-06-14T15:39:47;1.98;;;1.55;;
58250;SDS011;51449;51.676;5.812;2023-06-14T15:42:28;4.97;;;1.50;;
58250;SDS011;51449;51.676;5.812;2023-06-14T15:45:09;1.35;;;1.25;;
58250;SDS011;51449;51.676;5.812;2023-06-14T15:47:50;1.75;;;1.50;;
58250;SDS011;51449;51.676;5.812;2023-06-14T15:50:31;3.33;;;1.50;;
58250;SDS011;51449;51.676;5.812;2023-06-14T15:53:12;3.80;;;1.60;;
58250;SDS011;51449;51.676;5.812;2023-06-14T15:55:52;1.65;;;1.48;;
58250;SDS011;51449;51.676;5.812;2023-06-14T15:58:33;1.95;;;1.60;;
58250;SDS011;51449;51.676;5.812;2023-06-14T16:01:13;5.70;;;1.45;;
58250;SDS011;51449;51.676;5.812;2023-06-14T16:03:54;3.65;;;1.40;;
58250;SDS011;51449;51.676;5.812;2023-06-14T16:06:36;2.15;;;1.30;;
58250;SDS011;51449;51.676;5.812;2023-06-14T16:09:16;1.58;;;1.48;;
58250;SDS011;51449;51.676;5.812;2023-06-14T16:11:56;2.78;;;1.35;;
58250;SDS011;51449;51.676;5.812;2023-06-14T16:14:37;1.65;;;1.35;;
58250;SDS011;51449;51.676;5.812;2023-06-14T16:17:17;3.13;;;1.50;;
58250;SDS011;51449;51.676;5.812;2023-06-14T16:19:58;2.85;;;1.60;;
58250;SDS011;51449;51.676;5.812;2023-06-14T16:22:38;1.95;;;1.73;;
58250;SDS011;51449;51.676;5.812;2023-06-14T16:25:19;1.88;;;1.65;;
58250;SDS011;51449;51.676;5.812;2023-06-14T16:28:01;1.80;;;1.70;;
58250;SDS011;51449;51.676;5.812;2023-06-14T16:30:43;1.90;;;1.80;;
58250;SDS011;51449;51.676;5.812;2023-06-14T16:33:23;2.92;;;1.70;;
58250;SDS011;51449;51.676;5.812;2023-06-14T16:36:03;2.78;;;1.83;;
58250;SDS011;51449;51.676;5.812;2023-06-14T16:38:44;2.22;;;1.67;;